Strona główna
METAR-TAF:

METAR-TAF

Lotnisko :

Port lotniczy Dżudda

Dżudda, Arabia Saudyjska

Szerokość geograficzna: 21-42N, Długość geograficzna: 039-11E, wysokość: 15 m

Aktualna obserwacja pogody

Raport powstał 1 godzina i 5 minut temu, godzina 13:00 UTC
Wiatr 10 kt od północny zachód
Temperatura 27°C
Wilgotność 48%
Ciśnienie 1014 hPa
Widzialność 10 km lub więcej
Rozproszone chmury na wysokości 4000 ft

METAR: OEJN 151300Z 31010KT 9999 SCT040 27/15 Q1014 NOSIG

czas: 17:05 (14:05 UTC)

Prognoza

Raport powstał 3 godziny i 5 minut temu, godzina 11:00 UTC
Prognoza ważna od 15 godzina 12 UTC do 16 godzina 18 UTC
Wiatr 15 kt od północno-północny zachód
Widzialność: 7000 m
Rozproszone chmury na wysokości 4000 ft
Stopniowe zmiany
od 15 godzina 20 UTC do 15 godzina 22 UTC
Wiatr 8 kt od północno-północny wschód
Widzialność 10 km lub więcej
Brak chmur poniżej 1500 m i brak chmur cumulonimbus

TAF: OEJN 151100Z 1512/1618 33015KT 7000 SCT040 BECMG 1520/1522 03008KT CAVOK

Obserwacja i prognoza pogody dla ponad 4000 lotnisk (raport METAR i TAF).

Dostępne stacje oznaczono żółtymi i czerwonymi punktami na mapie.

Najedź kursorem aby zobaczyć nazwę stacji.

Kliknij aby zobaczyć obserwacje i prognozy pogody.

Aby zmienić mapę: kliknij na zielony przycisk z czarnym krzyżykiem, aby powiększyć; na zielony przycisk z myślnikiem, aby pomniejszyć; na zielone strzałki, aby przejść do map sąsiednich.


METAR-TAF: